Aeroporto :
LOGIN :

Iscrizione | Disclaimer

   EN    FR    IT 

 










Sommario :    VFR   VFR Marginale   IFR   IFR Intensivo   IFR Molto Intensivo
Visibilità : 
Base nubi : 
>= 8 km
>= 3000ft
5 / 8 km
1000 / 3000 ft
1500m / 5 km
500 / 1000 ft
800 / 1500m
200 / 500 ft
< 800m
< 200 ft
Simboli :   Temporali  Nebbia  Neve Forte  Precipitazioni Forti  Vento > 20 kt
SIGMETs :   Varie  Temporali  Ghiacco  Turbolenza  Onda orograficha  Ceneri Vulcaniche






- Altitudine del aeroporto : 68 ft


ESCM - Uppsala

ULTIMO METAR :
  • 021250Z 24024G36KT CAVOK 08/M02 Q0981

METARs OBSOLETI :
  • 021220Z 24021KT CAVOK 08/M02 Q0982
  • 021150Z 23018KT 9999 BKN046 OVC058 08/M01 Q0983
  • 021120Z 23020G30KT 9999 BKN045 08/M01 Q0983
  • 021050Z 23020KT 9999 BKN049 08/M02 Q0984

TAF TAF ESCM
Valido dal 02 a 12 ore il 02 a 14 ore UTC


021125Z 0212/0214 23023G42KT 9999 BKN040 RMK MIL



MetMap, La meteo Aeronautica in un colpo d'occhio ! - Copyright ORBIFLY Dicembre 2007 - Disclaimer

ORBIFLY MET'MAP TEAM :

Programmazione e sviluppo : Alexandra Zaïnal
Concezione : Baudouin d'Aumeries
Aiuto per la programmazione : Marc-Olivier Méhu
Supporto tecnico e logistico : Manuel Goepfert
Aiuto per la traduzione : Arnaldo La Scala

Contatto : metmap@orbifly.com




FONTI E CREDITI :

   NOAA